Time;durP1;ratioP1;P1;durP2;ratioP2;P2;SDS_P1;SDS_P2;PMS_P1;PMS_P2;Temp;Humidity;BMP_temperature;BMP_pressure;BME280_temperature;BME280_humidity;BME280_pressure;Samples;Min_cycle;Max_cycle;Signal;HPM_P1;HPM_P2
2023/07/11 00:01:42;;;;;;;0.80;0.80;;;;;;;;;;5074914;28;20443;-77
2023/07/11 00:04:09;;;;;;;0.97;0.83;;;;;;;;;;5072319;28;20446;-75
2023/07/11 00:06:35;;;;;;;0.90;0.90;;;;;;;;;;5074600;28;20441;-75
2023/07/11 00:09:04;;;;;;;0.80;0.80;;;;;;;;;;5073880;28;21001;-76
2023/07/11 00:11:31;;;;;;;0.70;0.60;;;;;;;;;;5070530;28;20510;-75
2023/07/11 00:14:11;;;;;;;0.80;0.77;;;;;;;;;;5070014;28;20444;-76
2023/07/11 00:16:38;;;;;;;0.80;0.80;;;;;;;;;;5073144;28;20433;-75
2023/07/11 00:19:06;;;;;;;0.80;0.70;;;;;;;;;;5066509;28;20441;-76
2023/07/11 00:21:33;;;;;;;0.80;0.70;;;;;;;;;;5071099;28;20465;-75
2023/07/11 00:24:03;;;;;;;1.10;0.93;;;;;;;;;;5066462;28;20462;-77
2023/07/11 00:26:31;;;;;;;0.80;0.70;;;;;;;;;;5063478;28;20432;-77
2023/07/11 00:28:58;;;;;;;0.80;0.70;;;;;;;;;;5063753;28;20814;-77
2023/07/11 00:31:25;;;;;;;0.70;0.70;;;;;;;;;;5049060;28;20552;-76
2023/07/11 00:33:52;;;;;;;0.97;0.87;;;;;;;;;;5067483;28;20484;-76
2023/07/11 00:36:18;;;;;;;0.70;0.60;;;;;;;;;;5036770;28;20484;-74
2023/07/11 00:38:45;;;;;;;0.80;0.70;;;;;;;;;;5078757;28;20470;-77
2023/07/11 00:41:11;;;;;;;0.70;0.67;;;;;;;;;;5067479;28;20478;-76
2023/07/11 00:43:39;;;;;;;0.80;0.70;;;;;;;;;;5057432;28;20460;-75
2023/07/11 00:46:11;;;;;;;0.93;0.90;;;;;;;;;;5063118;28;20430;-75
2023/07/11 00:48:39;;;;;;;0.77;0.70;;;;;;;;;;5062201;28;20450;-76
2023/07/11 00:51:07;;;;;;;1.10;1.00;;;;;;;;;;5064985;28;20455;-76
2023/07/11 00:53:34;;;;;;;0.70;0.70;;;;;;;;;;5064048;28;20484;-75
2023/07/11 00:56:02;;;;;;;0.80;0.80;;;;;;;;;;5062844;28;20455;-76
2023/07/11 00:58:31;;;;;;;1.00;0.90;;;;;;;;;;5068574;28;20477;-76
2023/07/11 01:00:59;;;;;;;0.80;0.80;;;;;;;;;;5055027;28;20439;-76
2023/07/11 01:03:26;;;;;;;0.77;0.70;;;;;;;;;;5073232;28;20444;-75
2023/07/11 01:05:54;;;;;;;0.80;0.80;;;;;;;;;;5073345;28;20836;-75
2023/07/11 01:08:21;;;;;;;1.17;1.07;;;;;;;;;;5069302;28;20472;-75
2023/07/11 01:10:47;;;;;;;0.90;0.90;;;;;;;;;;5074033;28;20997;-74
2023/07/11 01:13:14;;;;;;;0.73;0.67;;;;;;;;;;5070674;28;20862;-76
2023/07/11 01:15:41;;;;;;;0.80;0.70;;;;;;;;;;5072075;28;20508;-75
2023/07/11 01:18:10;;;;;;;0.80;0.70;;;;;;;;;;5076437;28;20439;-75
2023/07/11 01:20:36;;;;;;;0.80;0.70;;;;;;;;;;5082007;28;20499;-76
2023/07/11 01:23:04;;;;;;;1.00;0.97;;;;;;;;;;5073722;28;20467;-75
2023/07/11 01:25:32;;;;;;;0.80;0.80;;;;;;;;;;5074512;28;20511;-73
2023/07/11 01:27:59;;;;;;;0.80;0.80;;;;;;;;;;5080239;28;20457;-77
2023/07/11 01:30:25;;;;;;;0.70;0.60;;;;;;;;;;5075510;28;20499;-74
2023/07/11 01:32:52;;;;;;;0.80;0.80;;;;;;;;;;5080186;28;20447;-76
2023/07/11 01:35:18;;;;;;;0.80;0.70;;;;;;;;;;5052124;28;20450;-77
2023/07/11 01:37:45;;;;;;;0.70;0.60;;;;;;;;;;5076486;28;20444;-77
2023/07/11 01:40:13;;;;;;;0.77;0.70;;;;;;;;;;5080430;28;20814;-76
2023/07/11 01:42:40;;;;;;;0.77;0.67;;;;;;;;;;5061940;28;20449;-75
2023/07/11 01:45:08;;;;;;;0.80;0.80;;;;;;;;;;5077606;28;20519;-76
2023/07/11 01:47:35;;;;;;;0.80;0.80;;;;;;;;;;5085496;28;20423;-77
2023/07/11 01:50:01;;;;;;;1.13;1.07;;;;;;;;;;5078686;28;20437;-76
2023/07/11 01:52:28;;;;;;;0.80;0.80;;;;;;;;;;5080368;28;20459;-76
2023/07/11 01:54:54;;;;;;;0.80;0.70;;;;;;;;;;5064233;28;20439;-77
2023/07/11 01:57:22;;;;;;;0.80;0.70;;;;;;;;;;5077607;28;20441;-74
2023/07/11 01:59:49;;;;;;;1.63;1.53;;;;;;;;;;5081654;28;20441;-76
2023/07/11 02:02:16;;;;;;;0.70;0.70;;;;;;;;;;5072419;28;20455;-73
2023/07/11 02:04:43;;;;;;;0.73;0.70;;;;;;;;;;5079073;28;20471;-75
2023/07/11 02:07:10;;;;;;;0.80;0.70;;;;;;;;;;5060161;28;20469;-76
2023/07/11 02:09:37;;;;;;;0.70;0.70;;;;;;;;;;5073638;28;20446;-76
2023/07/11 02:12:03;;;;;;;0.70;0.60;;;;;;;;;;5076761;28;20470;-77
2023/07/11 02:14:31;;;;;;;0.80;0.70;;;;;;;;;;5079899;28;20439;-77
2023/07/11 02:16:58;;;;;;;0.80;0.73;;;;;;;;;;5077817;28;20423;-76
2023/07/11 02:19:25;;;;;;;0.70;0.67;;;;;;;;;;5085537;28;20458;-77
2023/07/11 02:21:52;;;;;;;0.70;0.70;;;;;;;;;;5078303;28;20486;-78
2023/07/11 02:24:19;;;;;;;0.77;0.70;;;;;;;;;;5057480;28;20531;-72
2023/07/11 02:26:47;;;;;;;1.87;1.00;;;;;;;;;;5075521;28;20449;-77
2023/07/11 02:29:14;;;;;;;0.70;0.70;;;;;;;;;;5073296;28;20430;-77
2023/07/11 02:31:42;;;;;;;0.70;0.70;;;;;;;;;;5079864;28;20552;-77
2023/07/11 02:34:09;;;;;;;0.70;0.70;;;;;;;;;;5081336;28;20434;-78
2023/07/11 02:36:35;;;;;;;0.90;0.90;;;;;;;;;;5079915;28;20452;-77
2023/07/11 02:39:02;;;;;;;0.80;0.70;;;;;;;;;;5077321;28;20450;-77
2023/07/11 02:41:29;;;;;;;0.80;0.70;;;;;;;;;;5062923;28;20427;-75
2023/07/11 02:43:55;;;;;;;0.80;0.80;;;;;;;;;;5079847;28;20445;-75
2023/07/11 02:46:22;;;;;;;0.90;0.90;;;;;;;;;;5084028;28;20423;-76
2023/07/11 02:48:50;;;;;;;0.80;0.80;;;;;;;;;;5077428;28;20457;-76
2023/07/11 02:51:17;;;;;;;0.90;0.80;;;;;;;;;;5073772;28;21127;-77
2023/07/11 02:53:44;;;;;;;0.70;0.60;;;;;;;;;;5076490;28;20453;-75
2023/07/11 02:56:11;;;;;;;1.10;1.00;;;;;;;;;;5078089;28;20447;-78
2023/07/11 02:58:37;;;;;;;1.23;1.13;;;;;;;;;;5079466;28;20502;-77
2023/07/11 03:01:04;;;;;;;0.70;0.70;;;;;;;;;;5071158;28;20829;-76
2023/07/11 03:03:31;;;;;;;0.77;0.70;;;;;;;;;;5075813;28;20460;-75
2023/07/11 03:05:59;;;;;;;0.80;0.70;;;;;;;;;;5063390;28;20539;-77
2023/07/11 03:08:25;;;;;;;0.70;0.70;;;;;;;;;;5079337;28;20458;-75
2023/07/11 03:10:55;;;;;;;0.80;0.73;;;;;;;;;;5079800;28;20741;-77
2023/07/11 03:13:22;;;;;;;0.70;0.67;;;;;;;;;;5067114;28;20968;-77
2023/07/11 03:15:49;;;;;;;0.80;0.70;;;;;;;;;;5073033;28;20437;-75
2023/07/11 03:18:15;;;;;;;2.50;1.70;;;;;;;;;;5053548;28;20457;-76
2023/07/11 03:20:42;;;;;;;0.80;0.80;;;;;;;;;;5079514;28;20517;-75
2023/07/11 03:23:11;;;;;;;0.70;0.70;;;;;;;;;;5071161;28;20525;-76
2023/07/11 03:25:38;;;;;;;0.70;0.60;;;;;;;;;;5061766;28;20466;-76
2023/07/11 03:28:05;;;;;;;0.70;0.67;;;;;;;;;;5070490;28;20505;-76
2023/07/11 03:30:32;;;;;;;0.80;0.70;;;;;;;;;;5071300;28;20441;-75
2023/07/11 03:32:58;;;;;;;0.70;0.70;;;;;;;;;;5070438;28;20470;-74
2023/07/11 03:35:25;;;;;;;0.90;0.90;;;;;;;;;;5069876;28;20518;-76
2023/07/11 03:37:52;;;;;;;0.70;0.60;;;;;;;;;;5061149;28;20761;-76
2023/07/11 03:40:19;;;;;;;0.70;0.70;;;;;;;;;;5075515;28;20537;-75
2023/07/11 03:42:46;;;;;;;0.93;0.83;;;;;;;;;;5071391;28;20438;-75
2023/07/11 03:45:14;;;;;;;0.80;0.70;;;;;;;;;;5062051;28;20454;-73
2023/07/11 03:47:40;;;;;;;0.70;0.70;;;;;;;;;;5071307;28;20461;-75
2023/07/11 03:50:07;;;;;;;0.70;0.60;;;;;;;;;;5048871;28;20529;-75
2023/07/11 03:52:34;;;;;;;1.40;1.30;;;;;;;;;;5069004;28;20581;-73
2023/07/11 03:55:01;;;;;;;0.80;0.80;;;;;;;;;;5074315;28;20446;-75
2023/07/11 03:57:29;;;;;;;1.20;1.00;;;;;;;;;;5078662;28;20441;-77
2023/07/11 03:59:55;;;;;;;0.80;0.80;;;;;;;;;;5067903;28;20489;-75
2023/07/11 04:02:22;;;;;;;0.70;0.60;;;;;;;;;;5079670;28;20436;-76
2023/07/11 04:04:49;;;;;;;0.80;0.70;;;;;;;;;;5064095;28;20441;-74
2023/07/11 04:07:15;;;;;;;0.80;0.70;;;;;;;;;;5076781;28;20506;-76
2023/07/11 04:09:42;;;;;;;0.80;0.80;;;;;;;;;;5076555;28;20432;-76
2023/07/11 04:12:09;;;;;;;0.70;0.60;;;;;;;;;;5079231;28;20563;-75
2023/07/11 04:14:37;;;;;;;0.70;0.60;;;;;;;;;;5085387;28;20420;-78
2023/07/11 04:17:04;;;;;;;0.70;0.70;;;;;;;;;;5075108;28;20440;-75
2023/07/11 04:19:31;;;;;;;1.30;1.20;;;;;;;;;;5072100;28;20435;-74
2023/07/11 04:21:57;;;;;;;0.70;0.60;;;;;;;;;;5080029;28;20466;-76
2023/07/11 04:24:24;;;;;;;0.80;0.70;;;;;;;;;;5076299;28;20442;-76
2023/07/11 04:26:51;;;;;;;0.80;0.70;;;;;;;;;;5079633;28;20432;-78
2023/07/11 04:29:17;;;;;;;0.80;0.80;;;;;;;;;;5056618;28;20468;-75
2023/07/11 04:31:45;;;;;;;0.70;0.70;;;;;;;;;;5072041;28;20477;-76
2023/07/11 04:34:12;;;;;;;0.70;0.70;;;;;;;;;;5077029;28;20435;-76
2023/07/11 04:36:38;;;;;;;0.70;0.60;;;;;;;;;;5070091;28;20484;-75
2023/07/11 04:39:05;;;;;;;0.80;0.80;;;;;;;;;;5060118;28;20480;-75
2023/07/11 04:41:32;;;;;;;2.50;1.10;;;;;;;;;;5055098;28;20872;-75
2023/07/11 04:43:58;;;;;;;0.80;0.70;;;;;;;;;;5078719;28;20467;-76
2023/07/11 04:46:25;;;;;;;0.70;0.60;;;;;;;;;;5063361;28;21090;-75
2023/07/11 04:48:53;;;;;;;0.70;0.70;;;;;;;;;;5062729;28;20553;-76
2023/07/11 04:51:20;;;;;;;0.70;0.60;;;;;;;;;;5061077;28;20436;-74
2023/07/11 04:53:46;;;;;;;0.80;0.80;;;;;;;;;;5064007;28;20464;-75
2023/07/11 04:56:13;;;;;;;0.90;0.90;;;;;;;;;;5052945;28;20448;-74
2023/07/11 04:58:40;;;;;;;0.70;0.60;;;;;;;;;;5052553;28;20523;-75
2023/07/11 05:01:07;;;;;;;0.70;0.60;;;;;;;;;;5065076;28;20468;-76
2023/07/11 05:03:34;;;;;;;0.70;0.70;;;;;;;;;;5065606;28;20436;-75
2023/07/11 05:06:03;;;;;;;0.80;0.70;;;;;;;;;;5060670;28;20432;-75
2023/07/11 05:08:30;;;;;;;0.80;0.70;;;;;;;;;;5071478;28;20968;-76
2023/07/11 05:11:01;;;;;;;0.80;0.77;;;;;;;;;;5071879;28;20451;-77
2023/07/11 05:13:28;;;;;;;0.80;0.80;;;;;;;;;;5045002;28;20496;-76
2023/07/11 05:15:57;;;;;;;0.70;0.60;;;;;;;;;;5070264;28;20542;-75
2023/07/11 05:18:24;;;;;;;0.70;0.67;;;;;;;;;;5059383;28;20435;-76
2023/07/11 05:20:52;;;;;;;0.80;0.70;;;;;;;;;;5060517;28;20535;-76
2023/07/11 05:23:20;;;;;;;0.70;0.70;;;;;;;;;;5055412;28;20526;-77
2023/07/11 05:25:46;;;;;;;1.00;0.90;;;;;;;;;;5052737;28;20893;-77
2023/07/11 05:28:14;;;;;;;0.90;0.90;;;;;;;;;;5065627;28;20463;-76
2023/07/11 05:30:41;;;;;;;0.80;0.80;;;;;;;;;;5056618;28;20843;-75
2023/07/11 05:33:07;;;;;;;1.03;0.90;;;;;;;;;;5061049;28;20478;-76
2023/07/11 05:35:37;;;;;;;0.70;0.70;;;;;;;;;;5061104;28;20440;-76
2023/07/11 05:38:03;;;;;;;0.80;0.80;;;;;;;;;;5058335;28;20545;-75
2023/07/11 05:40:31;;;;;;;1.37;1.10;;;;;;;;;;5059054;28;20843;-76
2023/07/11 05:42:58;;;;;;;0.70;0.70;;;;;;;;;;5045075;28;20467;-75
2023/07/11 05:45:24;;;;;;;0.80;0.70;;;;;;;;;;5048667;28;20450;-77
2023/07/11 05:47:51;;;;;;;1.10;1.00;;;;;;;;;;5065305;28;20475;-75
2023/07/11 05:50:21;;;;;;;0.80;0.60;;;;;;;;;;5060947;28;20444;-76
2023/07/11 05:52:48;;;;;;;1.40;1.30;;;;;;;;;;5053563;28;20563;-77
2023/07/11 05:55:14;;;;;;;0.83;0.83;;;;;;;;;;5050642;28;20438;-76
2023/07/11 05:57:42;;;;;;;0.70;0.60;;;;;;;;;;5051094;28;20441;-77
2023/07/11 06:00:09;;;;;;;1.10;1.00;;;;;;;;;;5059098;28;20436;-76
2023/07/11 06:02:37;;;;;;;0.70;0.60;;;;;;;;;;5056360;28;20462;-75
2023/07/11 06:05:04;;;;;;;1.00;0.90;;;;;;;;;;5052543;28;20440;-77
2023/07/11 06:07:33;;;;;;;0.90;0.90;;;;;;;;;;5058594;28;20462;-76
2023/07/11 06:10:00;;;;;;;0.80;0.70;;;;;;;;;;5057440;28;20990;-77
2023/07/11 06:12:26;;;;;;;0.77;0.70;;;;;;;;;;5062197;28;20473;-77
2023/07/11 06:14:54;;;;;;;0.70;0.60;;;;;;;;;;5058510;28;20967;-76
2023/07/11 06:17:21;;;;;;;1.10;0.90;;;;;;;;;;5060033;28;20446;-76
2023/07/11 06:19:48;;;;;;;0.80;0.80;;;;;;;;;;5061096;28;21054;-75
2023/07/11 06:22:14;;;;;;;0.80;0.70;;;;;;;;;;5062581;28;20537;-78
2023/07/11 06:24:41;;;;;;;0.90;0.70;;;;;;;;;;5062970;28;20468;-78
2023/07/11 06:27:09;;;;;;;0.80;0.70;;;;;;;;;;5063863;28;20971;-76
2023/07/11 06:29:35;;;;;;;1.13;1.00;;;;;;;;;;5038294;28;20451;-78
2023/07/11 06:32:04;;;;;;;0.77;0.70;;;;;;;;;;5061545;28;20927;-76
2023/07/11 06:34:30;;;;;;;0.80;0.80;;;;;;;;;;5057599;28;20447;-77
2023/07/11 06:36:57;;;;;;;0.70;0.63;;;;;;;;;;5061670;28;20486;-77
2023/07/11 06:39:25;;;;;;;0.80;0.77;;;;;;;;;;5065363;28;20435;-75
2023/07/11 06:41:51;;;;;;;0.80;0.70;;;;;;;;;;5060702;28;20914;-76
2023/07/11 06:44:24;;;;;;;1.13;1.03;;;;;;;;;;5054775;28;20443;-76
2023/07/11 06:46:51;;;;;;;0.80;0.80;;;;;;;;;;5057526;28;20431;-77
2023/07/11 06:49:19;;;;;;;0.93;0.83;;;;;;;;;;5059280;28;20448;-75
2023/07/11 06:51:48;;;;;;;0.80;0.80;;;;;;;;;;5060903;28;20917;-77
2023/07/11 06:54:14;;;;;;;0.80;0.67;;;;;;;;;;5055602;28;20490;-77
2023/07/11 06:56:41;;;;;;;0.80;0.80;;;;;;;;;;5058480;28;20439;-77
2023/07/11 06:59:08;;;;;;;0.73;0.70;;;;;;;;;;5057161;28;20440;-78
2023/07/11 07:01:35;;;;;;;0.80;0.70;;;;;;;;;;5058577;28;20443;-77
2023/07/11 07:04:04;;;;;;;1.77;1.33;;;;;;;;;;5057240;28;20451;-77
2023/07/11 07:06:35;;;;;;;4.73;0.80;;;;;;;;;;5062116;28;20523;-78
2023/07/11 07:09:03;;;;;;;0.83;0.80;;;;;;;;;;5063246;28;20423;-80
2023/07/11 07:11:29;;;;;;;0.70;0.60;;;;;;;;;;5061534;28;20429;-77
2023/07/11 07:13:56;;;;;;;0.87;0.80;;;;;;;;;;5056788;28;20450;-76
2023/07/11 07:16:32;;;;;;;0.80;0.70;;;;;;;;;;5054933;28;20847;-77
2023/07/11 07:19:00;;;;;;;1.10;1.00;;;;;;;;;;5054661;28;20432;-77
2023/07/11 07:21:26;;;;;;;1.03;1.00;;;;;;;;;;5060856;28;20511;-79
2023/07/11 07:23:55;;;;;;;1.00;0.90;;;;;;;;;;5053649;28;20542;-78
2023/07/11 07:26:21;;;;;;;0.80;0.80;;;;;;;;;;5054334;28;20441;-78
2023/07/11 07:28:48;;;;;;;0.80;0.70;;;;;;;;;;5055678;28;20417;-78
2023/07/11 07:31:15;;;;;;;1.10;1.00;;;;;;;;;;5060964;28;20413;-79
2023/07/11 07:33:42;;;;;;;0.97;0.87;;;;;;;;;;5053047;28;20454;-78
2023/07/11 07:36:12;;;;;;;1.33;1.23;;;;;;;;;;5055898;28;20501;-77
2023/07/11 07:38:39;;;;;;;1.37;1.27;;;;;;;;;;5061588;28;20427;-79
2023/07/11 07:41:08;;;;;;;0.80;0.70;;;;;;;;;;5056763;28;20410;-79
2023/07/11 07:43:36;;;;;;;0.80;0.70;;;;;;;;;;5042096;28;20443;-78
2023/07/11 07:46:03;;;;;;;0.80;0.73;;;;;;;;;;5053604;28;20430;-79
2023/07/11 07:48:30;;;;;;;0.77;0.67;;;;;;;;;;5055797;28;20417;-79
2023/07/11 07:51:02;;;;;;;1.00;0.90;;;;;;;;;;5059978;28;20448;-80
2023/07/11 07:53:29;;;;;;;0.80;0.70;;;;;;;;;;5060276;28;20473;-79
2023/07/11 07:56:00;;;;;;;1.20;0.90;;;;;;;;;;5038420;28;20972;-79
2023/07/11 07:58:28;;;;;;;0.80;0.70;;;;;;;;;;5053153;28;20465;-79
2023/07/11 08:01:09;;;;;;;0.77;0.67;;;;;;;;;;5054676;28;20403;-79
2023/07/11 08:03:36;;;;;;;0.80;0.70;;;;;;;;;;5056283;28;21015;-79
2023/07/11 08:06:03;;;;;;;0.80;0.80;;;;;;;;;;5056380;28;20494;-79
2023/07/11 08:08:43;;;;;;;0.93;0.83;;;;;;;;;;5072528;28;21344;-80
2023/07/11 08:11:11;;;;;;;0.80;0.70;;;;;;;;;;5059803;28;20439;-79
2023/07/11 08:13:39;;;;;;;0.70;0.60;;;;;;;;;;5056246;28;20476;-81
2023/07/11 08:16:24;;;;;;;0.70;0.60;;;;;;;;;;5060269;28;20918;-80
2023/07/11 08:18:53;;;;;;;1.43;1.00;;;;;;;;;;5058743;28;20996;-81
2023/07/11 08:21:20;;;;;;;0.80;0.70;;;;;;;;;;5055785;28;20847;-81
2023/07/11 08:23:47;;;;;;;0.80;0.70;;;;;;;;;;5053090;28;20618;-79
2023/07/11 08:26:13;;;;;;;1.07;1.00;;;;;;;;;;5041459;28;20455;-79
2023/07/11 08:28:41;;;;;;;0.80;0.70;;;;;;;;;;5060590;28;20482;-80
2023/07/11 08:31:08;;;;;;;0.80;0.70;;;;;;;;;;5057659;28;20427;-78
2023/07/11 08:33:35;;;;;;;0.80;0.80;;;;;;;;;;5040886;28;20475;-79
2023/07/11 08:36:02;;;;;;;1.00;0.90;;;;;;;;;;5052943;28;20450;-79
2023/07/11 08:38:29;;;;;;;0.80;0.80;;;;;;;;;;5043952;28;20482;-80
2023/07/11 08:40:56;;;;;;;0.90;0.80;;;;;;;;;;5054944;28;20516;-79
2023/07/11 08:43:26;;;;;;;0.80;0.70;;;;;;;;;;5056887;28;20456;-79
2023/07/11 08:45:57;;;;;;;0.77;0.63;;;;;;;;;;5054674;28;20429;-79
2023/07/11 08:48:43;;;;;;;1.23;0.97;;;;;;;;;;5037478;28;20435;-80
2023/07/11 08:51:23;;;;;;;0.80;0.60;;;;;;;;;;5040421;28;20487;-79
2023/07/11 08:53:55;;;;;;;1.77;1.33;;;;;;;;;;5056957;28;20606;-79
2023/07/11 08:56:28;;;;;;;0.80;0.70;;;;;;;;;;5060269;28;20456;-79
2023/07/11 08:58:59;;;;;;;0.70;0.60;;;;;;;;;;5055374;28;20542;-79
2023/07/11 09:01:33;;;;;;;0.70;0.60;;;;;;;;;;5053158;28;20477;-80
2023/07/11 09:04:00;;;;;;;1.20;1.10;;;;;;;;;;5058671;28;20436;-80
2023/07/11 09:06:32;;;;;;;0.70;0.60;;;;;;;;;;5058449;28;20450;-79
2023/07/11 09:08:59;;;;;;;0.70;0.60;;;;;;;;;;5058642;28;20983;-79
2023/07/11 09:11:29;;;;;;;0.80;0.80;;;;;;;;;;5071591;28;20989;-80
2023/07/11 09:14:00;;;;;;;0.80;0.80;;;;;;;;;;5038786;28;20494;-78
2023/07/11 09:16:35;;;;;;;0.70;0.60;;;;;;;;;;5052229;28;20961;-79
2023/07/11 09:19:05;;;;;;;0.90;0.70;;;;;;;;;;5040886;28;20986;-79
2023/07/11 09:21:35;;;;;;;0.80;0.60;;;;;;;;;;5037083;28;20447;-81
2023/07/11 09:24:06;;;;;;;0.80;0.70;;;;;;;;;;5034729;28;20502;-79
2023/07/11 09:26:43;;;;;;;0.70;0.60;;;;;;;;;;5051969;28;20450;-80
2023/07/11 09:29:10;;;;;;;2.23;1.60;;;;;;;;;;5037110;28;20493;-80
2023/07/11 09:31:39;;;;;;;0.70;0.60;;;;;;;;;;5061101;28;20546;-80
2023/07/11 09:34:14;;;;;;;0.80;0.70;;;;;;;;;;5054839;28;20550;-80
2023/07/11 09:36:41;;;;;;;1.10;1.00;;;;;;;;;;5057127;28;20530;-81
2023/07/11 09:39:13;;;;;;;0.70;0.60;;;;;;;;;;5054811;28;20440;-77
2023/07/11 09:41:43;;;;;;;0.70;0.60;;;;;;;;;;5053225;28;20533;-80
2023/07/11 09:44:16;;;;;;;0.93;0.80;;;;;;;;;;5045019;28;20461;-81
2023/07/11 09:46:44;;;;;;;0.80;0.60;;;;;;;;;;5050768;28;20948;-79
2023/07/11 09:49:16;;;;;;;0.80;0.60;;;;;;;;;;5055824;28;20946;-79
2023/07/11 09:51:46;;;;;;;0.70;0.60;;;;;;;;;;5042000;28;20960;-79
2023/07/11 09:54:16;;;;;;;0.80;0.70;;;;;;;;;;5054085;28;20498;-79
2023/07/11 09:56:44;;;;;;;0.70;0.60;;;;;;;;;;5054511;28;20493;-78
2023/07/11 09:59:12;;;;;;;0.70;0.60;;;;;;;;;;5032459;28;20451;-79
2023/07/11 10:01:39;;;;;;;0.70;0.60;;;;;;;;;;5050811;28;20564;-77
2023/07/11 10:04:08;;;;;;;3.43;1.50;;;;;;;;;;5035592;28;20444;-79
2023/07/11 10:06:38;;;;;;;0.80;0.60;;;;;;;;;;5041122;28;20554;-80
2023/07/11 10:09:15;;;;;;;0.80;0.70;;;;;;;;;;5055531;28;20435;-77
2023/07/11 10:11:46;;;;;;;0.70;0.50;;;;;;;;;;5051269;28;20458;-79
2023/07/11 10:14:17;;;;;;;1.30;1.20;;;;;;;;;;5058353;28;20982;-77
2023/07/11 10:16:45;;;;;;;1.03;0.93;;;;;;;;;;5039454;28;20461;-78
2023/07/11 10:19:14;;;;;;;0.70;0.50;;;;;;;;;;5053119;28;20432;-79
2023/07/11 10:21:42;;;;;;;1.20;1.00;;;;;;;;;;5053939;28;21138;-78
2023/07/11 10:24:13;;;;;;;0.70;0.60;;;;;;;;;;5035514;28;20446;-79
2023/07/11 10:26:39;;;;;;;0.80;0.70;;;;;;;;;;5058673;28;20427;-82
2023/07/11 10:29:11;;;;;;;0.80;0.70;;;;;;;;;;5055008;28;20860;-80
2023/07/11 10:31:53;;;;;;;0.80;0.70;;;;;;;;;;5056548;28;20435;-80
2023/07/11 10:34:24;;;;;;;0.70;0.50;;;;;;;;;;5058723;28;20464;-79
2023/07/11 10:36:52;;;;;;;0.70;0.50;;;;;;;;;;5055550;28;20545;-80
2023/07/11 10:39:20;;;;;;;1.03;0.60;;;;;;;;;;5041673;28;20455;-79
2023/07/11 10:41:50;;;;;;;0.80;0.60;;;;;;;;;;5052103;28;20432;-77
2023/07/11 10:44:19;;;;;;;0.97;0.87;;;;;;;;;;5055558;28;20478;-79
2023/07/11 10:46:47;;;;;;;0.80;0.57;;;;;;;;;;5040023;28;20451;-79
2023/07/11 10:49:15;;;;;;;0.90;0.60;;;;;;;;;;5057395;28;20844;-80
2023/07/11 10:51:49;;;;;;;1.77;1.63;;;;;;;;;;5040235;28;20447;-78
2023/07/11 10:54:18;;;;;;;0.80;0.50;;;;;;;;;;5044862;28;20521;-75
2023/07/11 10:56:48;;;;;;;0.80;0.60;;;;;;;;;;5054898;28;20440;-79
2023/07/11 10:59:18;;;;;;;0.80;0.50;;;;;;;;;;5042495;28;20518;-80
2023/07/11 11:01:51;;;;;;;0.80;0.50;;;;;;;;;;5057800;28;20440;-80
2023/07/11 11:04:28;;;;;;;1.30;1.20;;;;;;;;;;5063574;28;20463;-81
2023/07/11 11:06:59;;;;;;;0.80;0.50;;;;;;;;;;5039782;28;20602;-79
2023/07/11 11:09:35;;;;;;;0.80;0.50;;;;;;;;;;5058754;28;20433;-79
2023/07/11 11:12:07;;;;;;;0.80;0.50;;;;;;;;;;5058726;28;20428;-79
2023/07/11 11:14:40;;;;;;;0.80;0.50;;;;;;;;;;5051146;28;20849;-77
2023/07/11 11:17:14;;;;;;;1.00;0.60;;;;;;;;;;5053849;28;20848;-78
2023/07/11 11:19:50;;;;;;;0.80;0.50;;;;;;;;;;5056967;28;20426;-79
2023/07/11 11:22:20;;;;;;;0.80;0.50;;;;;;;;;;5055915;28;20481;-80
2023/07/11 11:24:50;;;;;;;0.80;0.50;;;;;;;;;;5059677;28;20521;-79
2023/07/11 11:27:22;;;;;;;0.90;0.60;;;;;;;;;;5058224;28;20526;-80
2023/07/11 11:29:54;;;;;;;0.90;0.60;;;;;;;;;;5059373;28;20427;-79
2023/07/11 11:32:26;;;;;;;0.87;0.60;;;;;;;;;;5042437;28;20533;-79
2023/07/11 11:35:10;;;;;;;0.90;0.60;;;;;;;;;;5039478;28;20468;-80
2023/07/11 11:37:54;;;;;;;1.43;0.70;;;;;;;;;;5056166;28;20585;-76
2023/07/11 11:40:22;;;;;;;0.90;0.80;;;;;;;;;;5056601;28;20471;-76
2023/07/11 11:42:51;;;;;;;1.00;0.80;;;;;;;;;;5060215;28;20845;-76
2023/07/11 11:45:28;;;;;;;1.43;1.10;;;;;;;;;;5058403;28;20430;-78
2023/07/11 11:48:17;;;;;;;1.30;1.17;;;;;;;;;;5055480;28;20528;-78
2023/07/11 11:50:47;;;;;;;0.90;0.60;;;;;;;;;;5056674;28;20931;-77
2023/07/11 11:53:22;;;;;;;0.90;0.70;;;;;;;;;;5059658;28;20995;-78
2023/07/11 11:55:51;;;;;;;1.27;0.83;;;;;;;;;;5054964;28;20477;-79
2023/07/11 11:58:32;;;;;;;1.00;0.90;;;;;;;;;;5044887;28;20501;-78
2023/07/11 12:00:59;;;;;;;1.00;0.70;;;;;;;;;;5059584;28;20436;-78
2023/07/11 12:03:29;;;;;;;1.00;0.70;;;;;;;;;;5053876;28;20505;-80
2023/07/11 12:05:57;;;;;;;1.23;1.13;;;;;;;;;;5057805;28;20447;-80
2023/07/11 12:08:27;;;;;;;1.43;1.00;;;;;;;;;;5066875;28;20451;-79
2023/07/11 12:11:12;;;;;;;0.90;0.60;;;;;;;;;;5061605;28;21013;-81
2023/07/11 12:13:40;;;;;;;0.90;0.60;;;;;;;;;;5057965;28;20526;-79
2023/07/11 12:16:25;;;;;;;1.93;0.80;;;;;;;;;;5054920;28;20442;-79
2023/07/11 12:19:25;;;;;;;0.90;0.50;;;;;;;;;;5053519;28;20471;-80
2023/07/11 12:21:56;;;;;;;0.90;0.70;;;;;;;;;;5059287;28;20468;-79
2023/07/11 12:24:25;;;;;;;1.00;0.60;;;;;;;;;;5054764;28;20457;-81
2023/07/11 12:27:10;;;;;;;0.90;0.70;;;;;;;;;;5056951;28;20457;-81
2023/07/11 12:29:38;;;;;;;1.07;0.97;;;;;;;;;;5057073;28;20443;-75
2023/07/11 12:32:32;;;;;;;1.13;1.03;;;;;;;;;;5061967;28;20497;-81
2023/07/11 12:35:10;;;;;;;1.00;0.60;;;;;;;;;;5024441;28;20484;-78
2023/07/11 12:37:39;;;;;;;0.90;0.50;;;;;;;;;;5057528;28;20858;-79
2023/07/11 12:40:13;;;;;;;0.90;0.60;;;;;;;;;;5062162;28;20478;-80
2023/07/11 12:42:46;;;;;;;1.87;1.47;;;;;;;;;;5056488;28;20198;-79
2023/07/11 12:45:14;;;;;;;1.00;0.70;;;;;;;;;;5035558;28;20196;-78
2023/07/11 12:47:41;;;;;;;1.00;0.77;;;;;;;;;;5053415;28;20726;-81
2023/07/11 12:50:15;;;;;;;0.90;0.60;;;;;;;;;;5058110;28;20208;-78
2023/07/11 12:52:41;;;;;;;1.23;1.00;;;;;;;;;;5059968;28;20244;-79
2023/07/11 12:55:12;;;;;;;1.10;0.85;;;;;;;;;;5049173;28;20225;-82
2023/07/11 12:57:44;;;;;;;0.98;0.77;;;;;;;;;;5055623;28;20707;-80
2023/07/11 13:00:17;;;;;;;1.38;0.80;;;;;;;;;;5043726;28;20209;-80
2023/07/11 13:02:45;;;;;;;1.13;0.82;;;;;;;;;;5057379;28;20189;-81
2023/07/11 13:05:15;;;;;;;1.00;0.90;;;;;;;;;;5054577;28;20229;-79
2023/07/11 13:07:41;;;;;;;0.90;0.52;;;;;;;;;;5048622;28;20223;-81
2023/07/11 13:10:16;;;;;;;0.90;0.70;;;;;;;;;;5055264;28;20200;-80
2023/07/11 13:12:43;;;;;;;1.10;0.80;;;;;;;;;;5061411;28;20249;-81
2023/07/11 13:15:12;;;;;;;0.90;0.60;;;;;;;;;;5056130;28;20220;-83
2023/07/11 13:17:39;;;;;;;1.08;0.75;;;;;;;;;;5057168;28;20202;-81
2023/07/11 13:20:06;;;;;;;1.00;0.77;;;;;;;;;;5060718;28;20196;-79
2023/07/11 13:22:33;;;;;;;0.90;0.57;;;;;;;;;;5055375;28;20215;-79
2023/07/11 13:25:00;;;;;;;1.00;0.70;;;;;;;;;;5058198;28;20212;-78
2023/07/11 13:27:29;;;;;;;0.95;0.70;;;;;;;;;;5057688;28;20224;-79
2023/07/11 13:29:56;;;;;;;1.23;0.70;;;;;;;;;;5039326;28;20196;-81
2023/07/11 13:32:23;;;;;;;0.90;0.60;;;;;;;;;;5062042;28;20298;-80
2023/07/11 13:34:51;;;;;;;1.52;1.02;;;;;;;;;;5051004;28;20670;-80
2023/07/11 13:37:22;;;;;;;1.05;0.82;;;;;;;;;;5054896;28;20274;-79
2023/07/11 13:39:49;;;;;;;1.33;1.17;;;;;;;;;;5052239;28;20196;-80
2023/07/11 13:42:17;;;;;;;1.13;1.02;;;;;;;;;;5055435;28;20685;-80
2023/07/11 13:44:47;;;;;;;1.05;0.95;;;;;;;;;;5057828;28;20549;-78
2023/07/11 13:47:19;;;;;;;1.13;0.60;;;;;;;;;;5053088;28;20189;-83
2023/07/11 13:49:55;;;;;;;1.85;1.20;;;;;;;;;;5054545;28;20677;-80
2023/07/11 13:52:25;;;;;;;1.00;0.75;;;;;;;;;;5059370;28;20266;-79
2023/07/11 13:54:53;;;;;;;1.23;1.13;;;;;;;;;;5023545;28;20323;-79
2023/07/11 13:57:20;;;;;;;1.30;0.80;;;;;;;;;;5047340;28;20251;-79
2023/07/11 13:59:48;;;;;;;0.90;0.60;;;;;;;;;;5059438;28;20197;-79
2023/07/11 14:02:33;;;;;;;3.80;1.35;;;;;;;;;;5056068;28;20582;-79
2023/07/11 14:05:00;;;;;;;2.00;1.15;;;;;;;;;;5049970;28;20276;-79
2023/07/11 14:07:27;;;;;;;1.10;0.90;;;;;;;;;;5049817;28;20217;-79
2023/07/11 14:09:54;;;;;;;1.52;0.82;;;;;;;;;;5051918;28;20650;-79
2023/07/11 14:12:20;;;;;;;1.00;0.75;;;;;;;;;;5038160;28;20206;-78
2023/07/11 14:14:48;;;;;;;1.63;0.93;;;;;;;;;;5034668;28;20263;-78
2023/07/11 14:17:17;;;;;;;2.28;0.88;;;;;;;;;;5051772;28;20215;-80
2023/07/11 14:19:43;;;;;;;1.10;0.73;;;;;;;;;;5036723;28;20615;-81
2023/07/11 14:22:12;;;;;;;1.48;0.93;;;;;;;;;;5054568;28;20228;-79
2023/07/11 14:24:40;;;;;;;1.02;0.65;;;;;;;;;;5036873;28;20208;-80
2023/07/11 14:27:09;;;;;;;0.90;0.52;;;;;;;;;;5054478;28;20220;-79
2023/07/11 14:29:35;;;;;;;1.45;0.65;;;;;;;;;;5055968;28;20584;-78
2023/07/11 14:32:04;;;;;;;0.90;0.60;;;;;;;;;;5055174;28;20543;-79
2023/07/11 14:34:31;;;;;;;1.38;1.00;;;;;;;;;;5060789;28;20304;-79
2023/07/11 14:36:57;;;;;;;1.48;0.90;;;;;;;;;;5057043;28;20217;-76
2023/07/11 14:39:24;;;;;;;1.00;0.75;;;;;;;;;;5056579;28;20188;-79
2023/07/11 14:41:51;;;;;;;1.45;1.00;;;;;;;;;;5059626;28;20205;-80
2023/07/11 14:44:21;;;;;;;1.02;0.77;;;;;;;;;;5057686;28;20272;-80
2023/07/11 14:46:48;;;;;;;1.25;0.98;;;;;;;;;;5057006;28;20315;-79
2023/07/11 14:49:16;;;;;;;1.00;0.70;;;;;;;;;;5055830;28;20685;-82
2023/07/11 14:51:43;;;;;;;1.88;1.42;;;;;;;;;;5058866;28;20279;-79
2023/07/11 14:54:11;;;;;;;1.60;0.82;;;;;;;;;;5059706;28;20536;-80